This is the latest recevied weather packets stored in our database for station/object DL3TR-13. If no packets are shown the sender has not sent any weather packets the latest 10 day(s).
| Time | Temp. | Humidity | Pressure | Rain* | Wind** | Luminosity | Snow |
|---|---|---|---|---|---|---|---|
| 1777939391 | 8.89° C | 82% | 1009.8 hPa | 0 mm | - | 0 W/m² | - |
| 1777938791 | 8.89° C | 82% | 1009.9 hPa | 0 mm | - | 0 W/m² | - |
| 1777938191 | 9.44° C | 81% | 1009.9 hPa | 0 mm | - | 0 W/m² | - |
| 1777937591 | 9.44° C | 81% | 1010.1 hPa | 0 mm | - | 0 W/m² | - |
| 1777936991 | 9.44° C | 81% | 1010.2 hPa | 0 mm | - | 0 W/m² | - |
| 1777936391 | 9.44° C | 79% | 1010.3 hPa | 0 mm | - | 0 W/m² | - |
| 1777935791 | 10° C | 81% | 1010.3 hPa | 0 mm | - | 0 W/m² | - |
| 1777935191 | 10° C | 78% | 1010.6 hPa | 0 mm | - | 0 W/m² | - |
| 1777934594 | 10.56° C | 77% | 1010.6 hPa | 0 mm | - | 0 W/m² | - |
| 1777933991 | 10.56° C | 77% | 1010.7 hPa | 0 mm | - | 0 W/m² | - |
| 1777933391 | 10.56° C | 76% | 1010.7 hPa | 0 mm | - | 0 W/m² | - |
| 1777932791 | 10.56° C | 76% | 1010.8 hPa | 0 mm | - | 0 W/m² | - |
| 1777932191 | 11.11° C | 74% | 1010.8 hPa | 0 mm | - | 0 W/m² | - |
| 1777931591 | 11.67° C | 73% | 1010.8 hPa | 0 mm | - | 0 W/m² | - |
| 1777930991 | 11.67° C | 72% | 1010.9 hPa | 0 mm | - | 0 W/m² | - |
| 1777930391 | 11.11° C | 73% | 1010.7 hPa | 0 mm | - | 0 W/m² | - |
| 1777929791 | 10.56° C | 75% | 1010.6 hPa | 0 mm | - | 0 W/m² | - |
| 1777929191 | 10° C | 76% | 1010.6 hPa | 0 mm | - | 0 W/m² | - |
| 1777928591 | 10° C | 75% | 1010.5 hPa | 0 mm | - | 0 W/m² | - |
| 1777927991 | 10.56° C | 72% | 1010.6 hPa | 0 mm | - | 0 W/m² | - |
| 1777927390 | 12.22° C | 69% | 1010.3 hPa | 0 mm | - | 0 W/m² | - |
| 1777926791 | 11.67° C | 71% | 1010.3 hPa | 0 mm | - | 0 W/m² | - |
| 1777926191 | 10.56° C | 73% | 1010.3 hPa | 0 mm | - | 0 W/m² | - |
| 1777925591 | 11.67° C | 69% | 1010.3 hPa | 0 mm | - | 0 W/m² | - |
| 1777924991 | 12.22° C | 67% | 1010.2 hPa | 0 mm | - | 0 W/m² | - |
* Rain latest hour (hover to see other rain measurements)
** Current wind speed in m/s (hover to see current wind gust speed)